createdAt,value
2018-04-13T00:00:43.600Z,99.90
2018-04-13T00:03:11.097Z,99.90
2018-04-13T00:05:45.133Z,99.90
2018-04-13T00:08:12.645Z,99.90
2018-04-13T00:10:40.110Z,99.90
2018-04-13T00:13:07.603Z,99.90
2018-04-13T00:15:35.101Z,99.90
2018-04-13T00:18:02.775Z,99.90
2018-04-13T00:20:30.249Z,99.90
2018-04-13T00:22:58.510Z,99.90
2018-04-13T00:25:26.005Z,99.90
2018-04-13T00:27:54.260Z,99.90
2018-04-13T00:30:21.728Z,99.90
2018-04-13T00:32:49.988Z,99.90
2018-04-13T00:35:23.088Z,99.90
2018-04-13T00:37:57.144Z,99.90
2018-04-13T00:40:24.615Z,99.90
2018-04-13T00:42:52.120Z,99.90
2018-04-13T00:45:25.906Z,99.90
2018-04-13T00:47:53.431Z,99.90
2018-04-13T00:50:20.894Z,99.90
2018-04-13T00:53:13.096Z,99.90
2018-04-13T00:55:46.486Z,99.90
2018-04-13T00:58:19.897Z,99.90
2018-04-13T01:00:52.996Z,99.90
2018-04-13T01:03:20.510Z,99.90
2018-04-13T01:05:47.983Z,99.90
2018-04-13T01:08:15.479Z,99.90
2018-04-13T01:10:43.077Z,99.90
2018-04-13T01:13:10.558Z,99.90
2018-04-13T01:15:38.049Z,99.90
2018-04-13T01:18:11.501Z,99.90
2018-04-13T01:20:39.751Z,99.90
2018-04-13T01:23:07.272Z,99.90
2018-04-13T01:25:34.754Z,99.90
2018-04-13T01:28:02.256Z,99.90
2018-04-13T01:30:30.477Z,99.90
2018-04-13T01:32:57.982Z,99.90
2018-04-13T01:35:32.058Z,99.90
2018-04-13T01:38:05.563Z,99.90
2018-04-13T01:40:33.029Z,99.90
2018-04-13T01:43:00.527Z,99.90
2018-04-13T01:45:28.767Z,99.90
2018-04-13T01:47:56.264Z,99.90
2018-04-13T01:50:29.530Z,99.90
2018-04-13T01:53:02.976Z,99.90
2018-04-13T01:55:30.450Z,99.90
2018-04-13T01:57:57.944Z,99.90
2018-04-13T02:00:26.180Z,99.90
2018-04-13T02:02:53.741Z,99.90
2018-04-13T02:05:21.223Z,99.90
2018-04-13T02:07:49.100Z,99.90
2018-04-13T02:10:22.555Z,99.90
2018-04-13T02:12:55.873Z,99.90
2018-04-13T02:15:23.344Z,99.90
2018-04-13T02:17:50.860Z,99.90
2018-04-13T02:20:24.258Z,99.90
2018-04-13T02:22:51.761Z,99.90
2018-04-13T02:25:19.237Z,99.90
2018-04-13T02:27:47.527Z,99.90
2018-04-13T02:30:14.991Z,99.90
2018-04-13T02:32:42.482Z,99.90
2018-04-13T02:35:15.777Z,99.90
2018-04-13T02:37:55.130Z,99.90
2018-04-13T02:40:22.610Z,99.90
2018-04-13T02:42:50.880Z,99.90
2018-04-13T02:45:24.255Z,99.90
2018-04-13T02:47:51.745Z,99.90
2018-04-13T02:50:20.011Z,99.90
2018-04-13T02:52:54.183Z,99.90
2018-04-13T02:55:21.674Z,99.90
2018-04-13T02:57:49.171Z,99.90
2018-04-13T03:00:16.663Z,99.90
2018-04-13T03:02:44.157Z,99.90
2018-04-13T03:05:18.139Z,99.90
2018-04-13T03:07:51.384Z,99.90
2018-04-13T03:10:18.846Z,99.90
2018-04-13T03:12:46.363Z,99.90
2018-04-13T03:15:19.547Z,99.90
2018-04-13T03:17:52.944Z,99.90
2018-04-13T03:20:20.444Z,99.90
2018-04-13T03:22:47.937Z,99.90
2018-04-13T03:25:15.421Z,99.90
2018-04-13T03:27:42.924Z,99.90
2018-04-13T03:30:10.420Z,99.90
2018-04-13T03:32:37.918Z,99.90
2018-04-13T03:35:06.154Z,99.90
2018-04-13T03:37:39.589Z,99.90
2018-04-13T03:40:07.818Z,99.90
2018-04-13T03:42:35.323Z,99.90
2018-04-13T03:45:09.335Z,99.90
2018-04-13T03:47:43.625Z,99.90
2018-04-13T03:50:11.110Z,99.90
2018-04-13T03:52:39.399Z,99.90
2018-04-13T03:55:06.876Z,99.90
2018-04-13T03:57:34.362Z,99.90
2018-04-13T04:00:01.822Z,99.90
2018-04-13T04:02:35.118Z,99.90
2018-04-13T04:05:08.377Z,99.90
2018-04-13T04:07:35.887Z,99.90
2018-04-13T04:10:09.346Z,99.90
2018-04-13T04:12:36.875Z,99.90
2018-04-13T04:15:04.343Z,99.90
2018-04-13T04:17:37.783Z,99.90
2018-04-13T04:20:17.037Z,99.90
2018-04-13T04:22:56.454Z,99.90
2018-04-13T04:25:50.649Z,99.90
2018-04-13T04:28:29.936Z,99.90
2018-04-13T04:31:03.330Z,99.90
2018-04-13T04:33:36.672Z,99.90
2018-04-13T04:36:04.169Z,99.90
2018-04-13T04:38:31.673Z,99.90
2018-04-13T04:41:05.116Z,99.90
2018-04-13T04:43:38.400Z,99.90
2018-04-13T04:46:06.664Z,99.90
2018-04-13T04:48:40.528Z,99.90
2018-04-13T04:51:13.819Z,99.90
2018-04-13T04:53:41.355Z,99.90
2018-04-13T04:56:14.593Z,99.90
2018-04-13T04:58:42.096Z,99.90
2018-04-13T05:01:15.136Z,99.90
2018-04-13T05:03:48.497Z,99.90
2018-04-13T05:06:21.788Z,99.90
2018-04-13T05:08:49.510Z,99.90
2018-04-13T05:11:16.991Z,99.90
2018-04-13T05:13:45.235Z,99.90
2018-04-13T05:16:18.631Z,99.90
2018-04-13T05:18:46.110Z,99.90
2018-04-13T05:21:14.392Z,99.90
2018-04-13T05:23:42.625Z,99.90
2018-04-13T05:26:10.118Z,99.90
2018-04-13T05:28:44.234Z,99.90
2018-04-13T05:31:18.149Z,99.90
2018-04-13T05:33:46.400Z,99.90
2018-04-13T05:36:13.913Z,99.90
2018-04-13T05:38:41.408Z,99.90
2018-04-13T05:41:14.929Z,99.90
2018-04-13T05:43:43.212Z,99.90
2018-04-13T05:46:11.479Z,99.90
2018-04-13T05:48:38.957Z,99.90
2018-04-13T05:51:07.251Z,99.90
2018-04-13T05:53:34.767Z,99.90
2018-04-13T05:56:08.130Z,99.90
2018-04-13T05:58:35.606Z,99.90
2018-04-13T06:01:03.116Z,99.90
2018-04-13T06:03:30.594Z,99.90
2018-04-13T06:05:58.145Z,99.90
2018-04-13T06:08:25.635Z,99.90
2018-04-13T06:10:53.125Z,99.90
2018-04-13T06:13:21.403Z,99.90
2018-04-13T06:15:49.638Z,99.90
2018-04-13T06:18:17.132Z,99.90
2018-04-13T06:20:45.362Z,99.90
2018-04-13T06:23:12.878Z,99.90
2018-04-13T06:25:40.345Z,99.90
2018-04-13T06:28:07.837Z,99.90
2018-04-13T06:30:35.322Z,99.90
2018-04-13T06:33:02.845Z,99.90
2018-04-13T06:35:30.354Z,99.90
2018-04-13T06:38:04.424Z,99.90
2018-04-13T06:40:31.918Z,99.90
2018-04-13T06:43:04.950Z,99.90
2018-04-13T06:45:32.466Z,99.90
2018-04-13T06:48:06.324Z,99.90
2018-04-13T06:50:39.777Z,99.90
2018-04-13T06:53:08.018Z,99.90
2018-04-13T06:55:41.310Z,99.90
2018-04-13T06:58:08.783Z,99.90
2018-04-13T07:00:42.087Z,99.90
2018-04-13T07:03:15.427Z,99.90
2018-04-13T07:05:42.935Z,99.90
2018-04-13T07:08:16.144Z,99.90
2018-04-13T07:10:44.410Z,99.90
2018-04-13T07:13:17.689Z,99.90
2018-04-13T07:15:45.209Z,99.90
2018-04-13T07:18:12.703Z,99.90
2018-04-13T07:20:40.217Z,99.90
2018-04-13T07:23:07.720Z,99.90
2018-04-13T07:25:35.231Z,99.90
2018-04-13T07:28:02.727Z,99.90
2018-04-13T07:30:30.230Z,99.90
2018-04-13T07:33:04.412Z,99.90
2018-04-13T07:35:31.921Z,99.90
2018-04-13T07:37:59.790Z,99.90
2018-04-13T07:40:26.954Z,99.90
2018-04-13T07:43:00.047Z,99.90
2018-04-13T07:45:27.564Z,99.90
2018-04-13T07:47:55.052Z,99.90
2018-04-13T07:50:28.524Z,99.90
2018-04-13T07:53:02.637Z,99.90
2018-04-13T07:55:30.903Z,99.90
2018-04-13T07:58:04.968Z,99.90
2018-04-13T08:00:32.492Z,99.90
2018-04-13T08:02:59.975Z,99.90
2018-04-13T08:05:27.494Z,99.90
2018-04-13T08:07:55.732Z,99.90
2018-04-13T08:10:23.251Z,99.90
2018-04-13T08:13:02.512Z,99.90
2018-04-13T08:15:35.825Z,99.90
2018-04-13T08:18:09.191Z,99.90
2018-04-13T08:20:37.465Z,99.90
2018-04-13T08:23:05.719Z,99.90
2018-04-13T08:25:33.246Z,99.90
2018-04-13T08:28:00.743Z,99.90
2018-04-13T08:30:28.246Z,99.90
2018-04-13T08:33:01.753Z,99.90
2018-04-13T08:35:29.292Z,99.90
2018-04-13T08:37:57.792Z,99.90
2018-04-13T08:40:25.371Z,99.90
2018-04-13T08:42:53.673Z,99.90
2018-04-13T08:45:26.987Z,99.90
2018-04-13T08:48:00.241Z,99.90
2018-04-13T08:50:28.508Z,99.90
2018-04-13T08:52:56.093Z,99.90
2018-04-13T08:55:23.592Z,99.90
2018-04-13T08:57:57.102Z,99.90
2018-04-13T09:00:24.600Z,99.30
2018-04-13T09:02:52.872Z,98.10
2018-04-13T09:05:21.122Z,98.00
2018-04-13T09:07:54.627Z,97.70
2018-04-13T09:10:27.952Z,96.80
2018-04-13T09:13:01.415Z,96.40
2018-04-13T09:15:34.517Z,95.80
2018-04-13T09:18:08.579Z,95.70
2018-04-13T09:20:36.066Z,95.70
2018-04-13T09:23:09.372Z,96.00
2018-04-13T09:25:42.633Z,96.00
2018-04-13T09:28:15.756Z,96.20
2018-04-13T09:30:49.025Z,96.30
2018-04-13T09:33:16.578Z,97.00
2018-04-13T09:35:44.090Z,97.10
2018-04-13T09:38:11.599Z,97.30
2018-04-13T09:40:39.077Z,97.20
2018-04-13T09:43:24.329Z,97.70
2018-04-13T09:46:03.549Z,97.90
2018-04-13T09:48:31.098Z,98.20
2018-04-13T09:51:10.272Z,98.10
2018-04-13T09:53:37.889Z,98.30
2018-04-13T09:56:05.354Z,98.20
2018-04-13T09:58:32.830Z,97.90
2018-04-13T10:01:00.328Z,98.50
2018-04-13T10:03:44.301Z,97.40
2018-04-13T10:06:17.704Z,97.40
2018-04-13T10:08:45.369Z,96.40
2018-04-13T10:11:13.720Z,97.20
2018-04-13T10:13:47.801Z,96.50
2018-04-13T10:16:15.281Z,96.50
2018-04-13T10:18:43.564Z,98.30
2018-04-13T10:21:17.043Z,97.90
2018-04-13T10:23:44.535Z,96.40
2018-04-13T10:26:12.126Z,96.60
2018-04-13T10:28:39.633Z,96.20
2018-04-13T10:31:07.878Z,95.50
2018-04-13T10:33:35.433Z,95.40
2018-04-13T10:36:08.865Z,94.90
2018-04-13T10:38:42.961Z,94.70
2018-04-13T10:41:10.434Z,94.70
2018-04-13T10:43:38.697Z,94.50
2018-04-13T10:46:12.797Z,94.50
2018-04-13T10:48:52.085Z,94.50
2018-04-13T10:51:19.564Z,94.20
2018-04-13T10:53:52.878Z,93.50
2018-04-13T10:56:32.160Z,93.20
2018-04-13T10:58:59.709Z,93.10
2018-04-13T11:01:32.879Z,92.90
2018-04-13T11:04:00.402Z,93.00
2018-04-13T11:06:33.745Z,93.40
2018-04-13T11:09:07.759Z,93.30
2018-04-13T11:11:36.002Z,93.00
2018-04-13T11:14:03.519Z,93.00
2018-04-13T11:16:30.992Z,92.90
2018-04-13T11:18:58.513Z,92.40
2018-04-13T11:21:32.498Z,91.80
2018-04-13T11:24:00.021Z,91.80
2018-04-13T11:26:39.234Z,91.80
2018-04-13T11:29:06.754Z,91.50
2018-04-13T11:31:39.892Z,91.50
2018-04-13T11:34:13.183Z,91.30
2018-04-13T11:36:40.669Z,90.90
2018-04-13T11:39:08.154Z,90.70
2018-04-13T11:41:42.149Z,90.50
2018-04-13T11:44:09.665Z,90.40
2018-04-13T11:46:37.149Z,90.80
2018-04-13T11:49:22.219Z,90.40
2018-04-13T11:51:55.644Z,89.90
2018-04-13T11:54:23.947Z,87.50
2018-04-13T11:57:03.033Z,87.40
2018-04-13T11:59:30.541Z,87.10
2018-04-13T12:01:58.013Z,85.70
2018-04-13T12:04:25.534Z,86.70
2018-04-13T12:06:59.682Z,86.40
2018-04-13T12:09:27.193Z,86.50
2018-04-13T12:11:54.683Z,86.40
2018-04-13T12:14:22.184Z,86.60
2018-04-13T12:16:49.685Z,87.70
2018-04-13T12:19:17.945Z,88.00
2018-04-13T12:21:46.243Z,88.10
2018-04-13T12:24:14.514Z,89.20
2018-04-13T12:26:42.795Z,90.30
2018-04-13T12:29:11.040Z,91.10
2018-04-13T12:31:38.549Z,91.00
2018-04-13T12:34:06.047Z,90.70
2018-04-13T12:36:33.559Z,91.30
2018-04-13T12:39:01.062Z,92.30
2018-04-13T12:41:28.563Z,91.30
2018-04-13T12:43:56.803Z,88.50
2018-04-13T12:46:24.306Z,88.50
2018-04-13T12:48:51.802Z,87.90
2018-04-13T12:51:19.317Z,90.20
2018-04-13T12:53:48.789Z,90.90
2018-04-13T12:56:16.432Z,91.30
2018-04-13T12:58:44.631Z,92.00
2018-04-13T13:01:12.291Z,92.00
2018-04-13T13:03:49.817Z,90.60
2018-04-13T13:06:17.332Z,91.00
2018-04-13T13:08:44.849Z,91.40
2018-04-13T13:11:13.111Z,92.20
2018-04-13T13:13:40.595Z,92.20
2018-04-13T13:16:08.150Z,91.80
2018-04-13T13:18:35.792Z,91.60
2018-04-13T13:21:03.957Z,91.20
2018-04-13T13:23:32.232Z,90.90
2018-04-13T13:25:59.750Z,90.90
2018-04-13T13:28:27.269Z,90.60
2018-04-13T13:30:54.739Z,90.80
2018-04-13T13:33:22.266Z,90.70
2018-04-13T13:35:49.762Z,90.30
2018-04-13T13:38:17.233Z,89.10
2018-04-13T13:40:44.700Z,89.00
2018-04-13T13:43:12.186Z,88.50
2018-04-13T13:45:42.375Z,90.00
2018-04-13T13:48:09.901Z,90.00
2018-04-13T13:50:37.359Z,90.00
2018-04-13T13:53:04.881Z,90.00
2018-04-13T13:55:33.105Z,89.70
2018-04-13T13:58:00.611Z,89.50
2018-04-13T14:00:28.847Z,88.30
2018-04-13T14:02:56.358Z,88.20
2018-04-13T14:05:23.869Z,88.50
2018-04-13T14:07:51.358Z,88.00
2018-04-13T14:10:19.635Z,88.60
2018-04-13T14:12:47.933Z,88.40
2018-04-13T14:15:15.411Z,88.40
2018-04-13T14:17:42.897Z,88.40
2018-04-13T14:20:10.373Z,89.00
2018-04-13T14:22:37.919Z,88.10
2018-04-13T14:25:05.348Z,88.70
2018-04-13T14:27:32.852Z,88.60
2018-04-13T14:30:00.342Z,87.90
2018-04-13T14:32:27.853Z,89.00
2018-04-13T14:34:55.326Z,89.40
2018-04-13T14:37:22.827Z,89.50
2018-04-13T14:39:50.296Z,90.20
2018-04-13T14:42:18.005Z,90.40
2018-04-13T14:44:45.486Z,90.40
2018-04-13T14:47:12.984Z,90.90
2018-04-13T14:49:40.479Z,90.80
2018-04-13T14:52:07.973Z,91.20
2018-04-13T14:54:35.451Z,91.70
2018-04-13T14:57:02.970Z,91.30
2018-04-13T14:59:31.222Z,90.80
2018-04-13T15:01:58.767Z,90.80
2018-04-13T15:04:26.256Z,90.40
2018-04-13T15:06:55.292Z,90.40
2018-04-13T15:09:22.781Z,90.40
2018-04-13T15:11:50.404Z,90.40
2018-04-13T15:14:17.907Z,90.30
2018-04-13T15:16:45.631Z,90.00
2018-04-13T15:19:13.153Z,89.90
2018-04-13T15:21:41.984Z,89.70
2018-04-13T15:24:09.448Z,89.60
2018-04-13T15:26:36.946Z,88.50
2018-04-13T15:29:05.321Z,88.40
2018-04-13T15:31:32.823Z,88.30
2018-04-13T15:34:00.352Z,87.20
2018-04-13T15:36:28.589Z,85.70
2018-04-13T15:38:56.082Z,85.70
2018-04-13T15:41:24.391Z,85.20
2018-04-13T15:43:51.886Z,85.10
2018-04-13T15:46:19.359Z,85.00
2018-04-13T15:48:46.873Z,83.70
2018-04-13T15:51:14.432Z,83.10
2018-04-13T15:53:41.939Z,82.80
2018-04-13T15:56:10.187Z,82.30
2018-04-13T15:58:37.713Z,81.80
2018-04-13T16:01:05.209Z,81.70
2018-04-13T16:03:32.704Z,82.00
2018-04-13T16:06:00.184Z,82.90
2018-04-13T16:08:27.808Z,82.40
2018-04-13T16:10:55.274Z,83.10
2018-04-13T16:13:23.531Z,85.90
2018-04-13T16:15:51.057Z,85.90
2018-04-13T16:18:18.529Z,86.40
2018-04-13T16:20:46.031Z,88.00
2018-04-13T16:23:14.295Z,88.40
2018-04-13T16:25:42.562Z,88.50
2018-04-13T16:28:10.027Z,88.50
2018-04-13T16:30:38.336Z,89.30
2018-04-13T16:33:05.812Z,89.20
2018-04-13T16:35:33.365Z,90.00
2018-04-13T16:38:00.879Z,89.70
2018-04-13T16:40:29.195Z,88.90
2018-04-13T16:42:56.693Z,88.90
2018-04-13T16:45:24.992Z,89.10
2018-04-13T16:47:53.247Z,88.70
2018-04-13T16:50:20.739Z,88.60
2018-04-13T16:52:48.977Z,88.80
2018-04-13T16:55:16.496Z,88.80
2018-04-13T16:57:43.973Z,89.00
2018-04-13T17:00:11.471Z,89.00
2018-04-13T17:02:39.735Z,90.70
2018-04-13T17:05:07.315Z,90.30
2018-04-13T17:07:35.564Z,90.80
2018-04-13T17:10:03.050Z,90.70
2018-04-13T17:12:30.581Z,90.80
2018-04-13T17:14:58.091Z,90.90
2018-04-13T17:17:25.568Z,91.10
2018-04-13T17:19:53.078Z,90.80
2018-04-13T17:22:21.360Z,91.30
2018-04-13T17:24:49.640Z,91.30
2018-04-13T17:27:17.123Z,91.30
2018-04-13T17:29:44.615Z,91.00
2018-04-13T17:32:12.095Z,91.40
2018-04-13T17:34:39.603Z,91.50
2018-04-13T17:37:07.093Z,92.00
2018-04-13T17:39:34.624Z,91.90
2018-04-13T17:42:02.110Z,91.80
2018-04-13T17:44:29.608Z,92.10
2018-04-13T17:46:57.859Z,92.60
2018-04-13T17:49:25.372Z,92.60
2018-04-13T17:51:52.835Z,92.70
2018-04-13T17:54:20.341Z,93.20
2018-04-13T17:56:47.812Z,93.40
2018-04-13T17:59:16.258Z,93.90
2018-04-13T18:01:43.751Z,93.90
2018-04-13T18:04:12.009Z,94.40
2018-04-13T18:06:40.324Z,95.10
2018-04-13T18:09:08.549Z,95.20
2018-04-13T18:11:36.038Z,95.20
2018-04-13T18:14:04.290Z,96.00
2018-04-13T18:16:31.800Z,96.00
2018-04-13T18:18:59.292Z,96.60
2018-04-13T18:21:26.816Z,97.20
2018-04-13T18:23:54.291Z,97.70
2018-04-13T18:26:22.735Z,98.20
2018-04-13T18:28:50.214Z,98.70
2018-04-13T18:31:17.732Z,99.20
2018-04-13T18:33:45.969Z,99.90
2018-04-13T18:36:14.389Z,99.90
2018-04-13T18:38:42.635Z,99.90
2018-04-13T18:41:10.167Z,99.90
2018-04-13T18:43:37.648Z,99.90
2018-04-13T18:46:05.187Z,99.90
2018-04-13T18:48:32.686Z,99.90
2018-04-13T18:51:00.954Z,99.90
2018-04-13T18:53:28.436Z,99.90
2018-04-13T18:55:56.739Z,99.90
2018-04-13T18:58:24.221Z,99.90
2018-04-13T19:00:51.722Z,99.90
2018-04-13T19:03:19.982Z,99.90
2018-04-13T19:05:47.449Z,99.90
2018-04-13T19:08:15.726Z,99.90
2018-04-13T19:10:43.328Z,99.90
2018-04-13T19:13:10.837Z,99.90
2018-04-13T19:15:38.314Z,99.90
2018-04-13T19:18:06.656Z,99.90
2018-04-13T19:20:34.615Z,99.90
2018-04-13T19:23:02.106Z,99.90
2018-04-13T19:25:29.590Z,99.90
2018-04-13T19:27:57.147Z,99.90
2018-04-13T19:30:24.638Z,99.90
2018-04-13T19:32:52.135Z,99.90
2018-04-13T19:35:20.378Z,99.90
2018-04-13T19:37:47.870Z,99.90
2018-04-13T19:40:15.785Z,99.90
2018-04-13T19:42:43.316Z,99.90
2018-04-13T19:45:10.807Z,99.90
2018-04-13T19:47:38.310Z,99.90
2018-04-13T19:50:05.817Z,99.90
2018-04-13T19:52:33.320Z,99.90
2018-04-13T19:55:00.818Z,99.90
2018-04-13T19:57:28.317Z,99.90
2018-04-13T19:59:55.813Z,99.90
2018-04-13T20:02:25.024Z,99.90
2018-04-13T20:04:52.917Z,99.90
2018-04-13T20:07:20.423Z,99.90
2018-04-13T20:09:47.870Z,99.90
2018-04-13T20:12:15.458Z,99.90
2018-04-13T20:14:43.765Z,99.90
2018-04-13T20:17:11.266Z,99.90
2018-04-13T20:19:38.756Z,99.90
2018-04-13T20:22:06.287Z,99.90
2018-04-13T20:24:33.763Z,99.90
2018-04-13T20:27:02.041Z,99.90
2018-04-13T20:29:30.290Z,99.90
2018-04-13T20:31:57.795Z,99.90
2018-04-13T20:34:25.263Z,99.90
2018-04-13T20:36:52.757Z,99.90
2018-04-13T20:39:20.273Z,99.90
2018-04-13T20:41:47.743Z,99.90
2018-04-13T20:44:15.257Z,99.90
2018-04-13T20:46:42.807Z,99.90
2018-04-13T20:49:10.324Z,99.90
2018-04-13T20:51:37.820Z,99.90
2018-04-13T20:54:06.123Z,99.90
2018-04-13T20:56:34.416Z,99.90
2018-04-13T20:59:01.894Z,99.90
2018-04-13T21:01:29.406Z,99.90
2018-04-13T21:03:57.647Z,99.90
2018-04-13T21:06:25.149Z,99.90
2018-04-13T21:08:52.641Z,99.90
2018-04-13T21:11:20.141Z,99.90
2018-04-13T21:13:47.635Z,99.90
2018-04-13T21:16:15.165Z,99.90
2018-04-13T21:18:43.411Z,99.90
2018-04-13T21:21:11.043Z,99.90
2018-04-13T21:23:38.518Z,99.90
2018-04-13T21:26:05.982Z,99.90
2018-04-13T21:28:33.487Z,99.90
2018-04-13T21:31:01.764Z,99.90
2018-04-13T21:33:29.252Z,99.90
2018-04-13T21:35:56.716Z,99.90
2018-04-13T21:38:24.241Z,99.90
2018-04-13T21:40:52.521Z,99.90
2018-04-13T21:43:20.790Z,99.90
2018-04-13T21:45:49.040Z,99.90
2018-04-13T21:48:16.551Z,99.90
2018-04-13T21:50:44.046Z,99.90
2018-04-13T21:53:11.543Z,99.90
2018-04-13T21:55:39.797Z,99.90
2018-04-13T21:58:07.326Z,99.90
2018-04-13T22:00:34.796Z,99.90
2018-04-13T22:03:02.292Z,99.90
2018-04-13T22:05:30.539Z,99.90
2018-04-13T22:07:58.028Z,99.90
2018-04-13T22:10:26.266Z,99.90
2018-04-13T22:13:05.773Z,99.90
2018-04-13T22:15:33.239Z,99.90
2018-04-13T22:18:00.725Z,99.90
2018-04-13T22:20:28.232Z,99.90
2018-04-13T22:22:55.758Z,99.90
2018-04-13T22:25:24.003Z,99.90
2018-04-13T22:27:51.463Z,99.90
2018-04-13T22:30:18.973Z,99.90
2018-04-13T22:32:46.545Z,99.90
2018-04-13T22:35:14.060Z,99.90
2018-04-13T22:37:41.545Z,99.90
2018-04-13T22:40:09.057Z,99.90
2018-04-13T22:42:36.544Z,99.90
2018-04-13T22:45:04.813Z,99.90
2018-04-13T22:47:32.276Z,99.90
2018-04-13T22:49:59.804Z,99.90
2018-04-13T22:52:27.280Z,99.90
2018-04-13T22:54:54.800Z,99.90
2018-04-13T22:57:22.279Z,99.90
2018-04-13T22:59:49.773Z,99.90
2018-04-13T23:02:18.032Z,99.90
2018-04-13T23:04:45.543Z,99.90
2018-04-13T23:07:13.043Z,99.90
2018-04-13T23:09:40.538Z,99.90
2018-04-13T23:12:08.031Z,99.90
2018-04-13T23:14:35.544Z,99.90
2018-04-13T23:17:03.788Z,99.90
2018-04-13T23:19:31.259Z,99.90
2018-04-13T23:21:58.746Z,99.90
2018-04-13T23:24:26.211Z,99.90
2018-04-13T23:26:53.719Z,99.90
2018-04-13T23:29:21.205Z,99.90
2018-04-13T23:31:49.487Z,99.90
2018-04-13T23:34:17.055Z,99.90
2018-04-13T23:36:44.602Z,99.90
2018-04-13T23:39:12.817Z,99.90
2018-04-13T23:41:40.323Z,99.90
2018-04-13T23:44:08.567Z,99.90
2018-04-13T23:46:36.065Z,99.90
2018-04-13T23:49:04.301Z,99.90
2018-04-13T23:51:31.783Z,99.90
2018-04-13T23:53:59.285Z,99.90
2018-04-13T23:56:26.783Z,99.90
2018-04-13T23:58:54.282Z,99.90
